Time;durP1;ratioP1;P1;durP2;ratioP2;P2;SDS_P1;SDS_P2;PMS_P1;PMS_P2;Temp;Humidity;BMP_temperature;BMP_pressure;BME280_temperature;BME280_humidity;BME280_pressure;Samples;Min_cycle;Max_cycle;Signal;HPM_P1;HPM_P2
2023/01/07 00:01:22;;;;;;;7.10;3.50;;;8.90;99.60;;;;;;5011541;28;20056;-66
2023/01/07 00:03:49;;;;;;;4.65;2.88;;;8.90;99.60;;;;;;5008094;28;20106;-66
2023/01/07 00:06:24;;;;;;;3.88;2.85;;;8.90;99.50;;;;;;5010596;28;20045;-66
2023/01/07 00:08:52;;;;;;;4.55;2.88;;;8.80;99.60;;;;;;5013909;28;20026;-66
2023/01/07 00:11:24;;;;;;;4.15;3.10;;;8.80;99.80;;;;;;5014625;28;20552;-66
2023/01/07 00:13:52;;;;;;;3.85;2.70;;;8.80;99.80;;;;;;5015040;28;20038;-66
2023/01/07 00:16:20;;;;;;;3.92;2.70;;;8.80;99.90;;;;;;5018198;28;20084;-66
2023/01/07 00:18:47;;;;;;;4.45;2.90;;;8.70;99.90;;;;;;5010832;28;20029;-66
2023/01/07 00:21:17;;;;;;;4.75;2.75;;;8.80;99.90;;;;;;5007234;28;20109;-66
2023/01/07 00:23:44;;;;;;;3.63;2.60;;;8.80;99.90;;;;;;5010828;28;20040;-66
2023/01/07 00:26:14;;;;;;;3.45;2.83;;;8.80;99.90;;;;;;5006503;28;20049;-66
2023/01/07 00:28:42;;;;;;;4.47;2.20;;;8.80;99.90;;;;;;5010097;28;20512;-66
2023/01/07 00:31:12;;;;;;;4.95;2.97;;;8.80;99.90;;;;;;5005566;28;20044;-66
2023/01/07 00:33:47;;;;;;;4.88;3.15;;;8.80;99.90;;;;;;5008817;28;20026;-66
2023/01/07 00:36:14;;;;;;;4.00;2.28;;;8.80;99.90;;;;;;5015006;28;20029;-66
2023/01/07 00:38:39;;;;;;;3.70;2.65;;;8.80;99.90;;;;;;5009548;28;20049;-66
2023/01/07 00:41:05;;;;;;;6.55;2.42;;;8.80;99.90;;;;;;5008966;28;20132;-66
2023/01/07 00:43:31;;;;;;;2.63;2.05;;;8.80;99.90;;;;;;5009492;28;20041;-66
2023/01/07 00:45:57;;;;;;;4.47;2.53;;;8.80;99.90;;;;;;5008007;28;20132;-66
2023/01/07 00:48:23;;;;;;;4.72;3.13;;;8.70;99.90;;;;;;5010128;28;20135;-66
2023/01/07 00:50:50;;;;;;;5.75;2.30;;;8.70;99.90;;;;;;5006874;28;20527;-66
2023/01/07 00:53:17;;;;;;;3.10;2.20;;;8.80;99.90;;;;;;5015239;28;20532;-66
2023/01/07 00:55:43;;;;;;;3.65;2.58;;;8.80;99.90;;;;;;5012219;28;20730;-66
2023/01/07 00:58:19;;;;;;;3.92;2.20;;;8.90;99.90;;;;;;5008013;28;20054;-66
2023/01/07 01:00:45;;;;;;;4.25;2.70;;;9.00;99.90;;;;;;5015141;28;20117;-67
2023/01/07 01:03:11;;;;;;;6.43;2.90;;;9.10;99.90;;;;;;5005569;28;20077;-66
2023/01/07 01:05:38;;;;;;;3.58;2.47;;;9.10;99.90;;;;;;5009170;28;20179;-66
2023/01/07 01:08:04;;;;;;;3.45;2.60;;;9.20;99.90;;;;;;5004344;28;20115;-66
2023/01/07 01:10:30;;;;;;;2.95;2.53;;;9.20;99.90;;;;;;5009874;28;20029;-67
2023/01/07 01:12:57;;;;;;;5.47;2.70;;;9.10;99.90;;;;;;5009193;28;20073;-66
2023/01/07 01:15:23;;;;;;;3.45;2.63;;;9.10;99.90;;;;;;4989881;28;20519;-67
2023/01/07 01:17:50;;;;;;;4.63;2.80;;;9.10;99.90;;;;;;5013353;28;20025;-67
2023/01/07 01:20:17;;;;;;;3.22;2.40;;;9.20;99.90;;;;;;5010769;28;20816;-67
2023/01/07 01:22:42;;;;;;;3.67;2.58;;;9.10;99.90;;;;;;5007818;28;20029;-66
2023/01/07 01:25:09;;;;;;;3.53;2.20;;;9.10;99.90;;;;;;5009771;28;20857;-66
2023/01/07 01:27:35;;;;;;;2.80;2.25;;;9.10;99.90;;;;;;5007761;28;20138;-66
2023/01/07 01:30:02;;;;;;;2.97;2.60;;;9.10;99.90;;;;;;5011128;28;20729;-67
2023/01/07 01:32:29;;;;;;;3.35;2.30;;;9.20;99.90;;;;;;5003717;28;20064;-66
2023/01/07 01:34:55;;;;;;;2.63;2.22;;;9.20;99.90;;;;;;5012412;28;20032;-66
2023/01/07 01:37:21;;;;;;;2.65;2.13;;;9.10;99.90;;;;;;5015775;28;20029;-67
2023/01/07 01:39:47;;;;;;;3.63;2.22;;;9.10;99.90;;;;;;5013211;28;20033;-67
2023/01/07 01:42:16;;;;;;;3.38;2.53;;;9.10;99.90;;;;;;5016752;28;20037;-66
2023/01/07 01:44:47;;;;;;;5.18;2.60;;;9.10;99.90;;;;;;5020551;28;20025;-66
2023/01/07 01:47:19;;;;;;;2.97;2.50;;;9.10;99.90;;;;;;5012098;28;20116;-66
2023/01/07 01:50:00;;;;;;;3.90;2.72;;;9.10;99.90;;;;;;5011585;28;20022;-67
2023/01/07 01:52:44;;;;;;;3.00;2.55;;;9.10;99.90;;;;;;5021375;28;20029;-67
2023/01/07 01:55:15;;;;;;;3.25;2.63;;;9.20;99.90;;;;;;5016330;28;20030;-66
2023/01/07 01:57:42;;;;;;;3.60;2.95;;;9.20;99.90;;;;;;5018092;28;20462;-66
2023/01/07 02:00:10;;;;;;;3.97;2.90;;;9.30;99.90;;;;;;5013965;28;20029;-67
2023/01/07 02:02:57;;;;;;;4.80;2.97;;;9.30;99.90;;;;;;5003648;28;20025;-66
2023/01/07 02:05:28;;;;;;;4.05;2.80;;;9.30;99.90;;;;;;5013429;28;20034;-66
2023/01/07 02:07:54;;;;;;;4.97;3.00;;;9.30;99.90;;;;;;5013998;28;20042;-66
2023/01/07 02:10:22;;;;;;;4.07;2.92;;;9.30;99.90;;;;;;5007572;28;20124;-67
2023/01/07 02:13:01;;;;;;;4.20;3.10;;;9.30;99.90;;;;;;5011993;28;20030;-67
2023/01/07 02:15:36;;;;;;;4.88;3.15;;;9.30;99.90;;;;;;5006458;28;21278;-66
2023/01/07 02:18:10;;;;;;;4.28;3.00;;;9.20;99.90;;;;;;5015893;28;20041;-66
2023/01/07 02:20:36;;;;;;;5.13;3.20;;;9.20;99.90;;;;;;5019812;28;20036;-67
2023/01/07 02:23:20;;;;;;;4.93;3.47;;;9.20;99.90;;;;;;5011909;28;20034;-66
2023/01/07 02:26:13;;;;;;;3.88;3.40;;;9.10;99.90;;;;;;5017403;28;20076;-66
2023/01/07 02:29:00;;;;;;;3.22;2.80;;;9.10;99.90;;;;;;5009007;28;20045;-68
2023/01/07 02:31:50;;;;;;;3.63;2.75;;;9.00;99.90;;;;;;5014455;28;20724;-67
2023/01/07 02:34:48;;;;;;;4.35;2.97;;;9.00;99.90;;;;;;5009607;28;20042;-67
2023/01/07 02:37:18;;;;;;;5.32;3.65;;;9.00;99.90;;;;;;5010672;28;20033;-66
2023/01/07 02:39:57;;;;;;;5.13;3.13;;;9.00;99.90;;;;;;5008991;28;20455;-66
2023/01/07 02:43:03;;;;;;;4.47;3.50;;;9.00;99.90;;;;;;5016841;28;20040;-65
2023/01/07 02:45:43;;;;;;;5.07;3.60;;;9.00;99.90;;;;;;5002970;28;20037;-66
2023/01/07 02:48:13;;;;;;;5.20;3.55;;;9.00;99.90;;;;;;5012010;28;20037;-66
2023/01/07 02:50:39;;;;;;;8.75;3.65;;;9.10;99.90;;;;;;5011755;28;20029;-66
2023/01/07 02:53:09;;;;;;;4.80;3.75;;;9.10;99.90;;;;;;5008433;28;20065;-66
2023/01/07 02:56:11;;;;;;;4.60;3.88;;;9.10;99.90;;;;;;5013768;28;20044;-65
2023/01/07 02:58:37;;;;;;;5.50;4.00;;;9.20;99.90;;;;;;5007779;28;20112;-66
2023/01/07 03:01:16;;;;;;;4.47;3.67;;;9.20;99.90;;;;;;5015231;28;20104;-66
2023/01/07 03:04:19;;;;;;;5.07;3.90;;;9.30;99.90;;;;;;5014704;28;20037;-66
2023/01/07 03:07:09;;;;;;;6.63;4.53;;;9.30;99.90;;;;;;5013810;28;20056;-66
2023/01/07 03:09:46;;;;;;;8.45;4.97;;;9.30;99.90;;;;;;5013750;28;20083;-67
2023/01/07 03:12:18;;;;;;;5.53;4.20;;;9.30;99.90;;;;;;5009314;28;20067;-66
2023/01/07 03:14:53;;;;;;;8.43;5.00;;;9.40;99.90;;;;;;5009033;28;20033;-66
2023/01/07 03:17:24;;;;;;;6.80;4.55;;;9.40;99.90;;;;;;5008047;28;20030;-66
2023/01/07 03:19:56;;;;;;;6.20;4.50;;;9.50;99.90;;;;;;5017911;28;20033;-66
2023/01/07 03:22:25;;;;;;;5.28;4.38;;;9.50;99.90;;;;;;5006724;28;20062;-66
2023/01/07 03:24:55;;;;;;;7.03;4.82;;;9.50;99.90;;;;;;5015483;28;20034;-66
2023/01/07 03:27:26;;;;;;;4.97;4.40;;;9.60;99.90;;;;;;5018979;28;20565;-66
2023/01/07 03:29:53;;;;;;;6.40;4.43;;;9.60;99.90;;;;;;5010531;28;20080;-66
2023/01/07 03:32:37;;;;;;;6.90;5.07;;;9.70;99.90;;;;;;5010816;28;20512;-66
2023/01/07 03:35:04;;;;;;;8.20;5.53;;;9.70;99.90;;;;;;5007673;28;20029;-66
2023/01/07 03:37:32;;;;;;;6.22;4.90;;;9.70;99.90;;;;;;5011259;28;20136;-66
2023/01/07 03:39:59;;;;;;;6.70;4.55;;;9.70;99.90;;;;;;5004047;28;20567;-66
2023/01/07 03:42:39;;;;;;;5.50;4.05;;;9.70;99.90;;;;;;5011795;28;20600;-66
2023/01/07 03:45:26;;;;;;;9.75;5.32;;;9.60;99.90;;;;;;5020116;28;20540;-66
2023/01/07 03:47:56;;;;;;;5.82;4.55;;;9.50;99.90;;;;;;5017780;28;20145;-66
2023/01/07 03:50:24;;;;;;;5.70;4.47;;;9.50;99.90;;;;;;5015227;28;20702;-66
2023/01/07 03:52:51;;;;;;;9.00;4.97;;;9.50;99.90;;;;;;5007320;28;20112;-66
2023/01/07 03:55:19;;;;;;;7.22;5.18;;;9.50;99.90;;;;;;5010198;28;20383;-65
2023/01/07 03:57:46;;;;;;;5.57;4.25;;;9.60;99.90;;;;;;5007496;28;20037;-66
2023/01/07 04:00:13;;;;;;;5.80;4.50;;;9.60;99.90;;;;;;5016764;28;20033;-66
2023/01/07 04:02:49;;;;;;;7.68;5.57;;;9.70;99.90;;;;;;5008189;28;20034;-66
2023/01/07 04:05:21;;;;;;;7.15;4.90;;;9.70;99.90;;;;;;5009337;28;20065;-66
2023/01/07 04:07:47;;;;;;;7.78;5.00;;;9.70;99.90;;;;;;5014214;28;20029;-66
2023/01/07 04:10:13;;;;;;;8.35;5.80;;;9.70;99.90;;;;;;5012912;28;20038;-66
2023/01/07 04:12:40;;;;;;;7.50;5.38;;;9.70;99.90;;;;;;5017657;28;20037;-66
2023/01/07 04:15:07;;;;;;;9.43;6.05;;;9.70;99.90;;;;;;5011237;28;20030;-66
2023/01/07 04:17:33;;;;;;;6.78;4.85;;;9.70;99.90;;;;;;5006129;28;20465;-66
2023/01/07 04:19:59;;;;;;;9.48;5.22;;;9.70;99.90;;;;;;5009544;28;20152;-66
2023/01/07 04:22:25;;;;;;;7.63;4.90;;;9.70;99.90;;;;;;5004436;28;20143;-66
2023/01/07 04:24:51;;;;;;;6.93;5.40;;;9.70;99.90;;;;;;5012737;28;20125;-66
2023/01/07 04:27:18;;;;;;;7.90;5.25;;;9.70;99.90;;;;;;5006808;28;20034;-66
2023/01/07 04:29:43;;;;;;;7.20;5.22;;;9.70;99.90;;;;;;5015339;28;20029;-66
2023/01/07 04:32:10;;;;;;;9.27;5.20;;;9.80;99.90;;;;;;5011714;28;20041;-66
2023/01/07 04:34:36;;;;;;;7.18;5.28;;;9.80;99.90;;;;;;5011729;28;20619;-66
2023/01/07 04:37:03;;;;;;;7.55;5.75;;;9.80;99.90;;;;;;5008057;28;20025;-66
2023/01/07 04:39:29;;;;;;;7.13;5.47;;;9.80;99.90;;;;;;5011262;28;20021;-66
2023/01/07 04:41:56;;;;;;;7.90;5.38;;;9.80;99.90;;;;;;5005437;28;20026;-66
2023/01/07 04:44:22;;;;;;;7.78;5.75;;;9.80;99.90;;;;;;5012616;28;20053;-66
2023/01/07 04:46:48;;;;;;;7.95;5.32;;;9.80;99.90;;;;;;5004598;28;20033;-66
2023/01/07 04:49:14;;;;;;;9.07;4.95;;;9.70;99.90;;;;;;5011260;28;20034;-66
2023/01/07 04:51:40;;;;;;;6.93;4.30;;;9.70;99.90;;;;;;5015859;28;20165;-66
2023/01/07 04:54:06;;;;;;;8.48;5.10;;;9.70;99.90;;;;;;5013848;28;20486;-66
2023/01/07 04:56:32;;;;;;;8.20;5.35;;;9.80;99.90;;;;;;5014272;28;20529;-66
2023/01/07 04:58:59;;;;;;;5.75;4.32;;;9.80;99.90;;;;;;5016355;28;20049;-66
2023/01/07 05:01:26;;;;;;;5.95;4.85;;;9.80;99.90;;;;;;5009712;28;20033;-66
2023/01/07 05:03:52;;;;;;;6.60;4.25;;;9.80;99.90;;;;;;5009689;28;20037;-66
2023/01/07 05:06:19;;;;;;;7.65;4.50;;;9.80;99.90;;;;;;5004584;28;20030;-67
2023/01/07 05:08:47;;;;;;;6.05;4.65;;;9.80;99.90;;;;;;5009645;28;20596;-65
2023/01/07 05:11:14;;;;;;;5.70;4.75;;;9.80;99.90;;;;;;5008124;28;20144;-66
2023/01/07 05:13:42;;;;;;;6.65;4.75;;;9.90;99.90;;;;;;5011599;28;20029;-65
2023/01/07 05:16:09;;;;;;;6.22;4.80;;;9.90;99.90;;;;;;5013581;28;20037;-68
2023/01/07 05:18:35;;;;;;;6.88;4.70;;;9.90;99.90;;;;;;5013447;28;20029;-65
2023/01/07 05:21:02;;;;;;;6.57;4.35;;;9.90;99.90;;;;;;5013356;28;20099;-65
2023/01/07 05:23:28;;;;;;;5.25;3.90;;;9.80;99.90;;;;;;5008788;28;20029;-65
2023/01/07 05:25:55;;;;;;;7.15;4.50;;;9.80;99.90;;;;;;5013281;28;20028;-65
2023/01/07 05:28:20;;;;;;;6.70;4.57;;;9.80;99.90;;;;;;5008774;28;20034;-66
2023/01/07 05:30:46;;;;;;;6.35;4.47;;;9.90;99.90;;;;;;5011033;28;20052;-66
2023/01/07 05:33:12;;;;;;;5.90;4.20;;;9.90;99.90;;;;;;5016552;28;20796;-66
2023/01/07 05:35:38;;;;;;;5.93;3.97;;;9.90;99.90;;;;;;5016864;28;20029;-66
2023/01/07 05:38:05;;;;;;;5.72;3.90;;;10.00;99.90;;;;;;5013487;28;20417;-66
2023/01/07 05:40:32;;;;;;;4.43;3.55;;;10.10;99.90;;;;;;5014300;28;20041;-66
2023/01/07 05:42:57;;;;;;;5.43;3.88;;;10.10;99.90;;;;;;5011251;28;20132;-66
2023/01/07 05:45:25;;;;;;;4.60;3.88;;;10.10;99.90;;;;;;5014103;28;20437;-65
2023/01/07 05:47:51;;;;;;;5.53;3.88;;;10.10;99.90;;;;;;5012951;28;20060;-66
2023/01/07 05:50:17;;;;;;;5.45;4.22;;;10.10;99.90;;;;;;5016902;28;20402;-65
2023/01/07 05:52:42;;;;;;;4.38;3.45;;;10.20;99.90;;;;;;5008425;28;20040;-66
2023/01/07 05:55:08;;;;;;;6.18;3.85;;;10.20;99.90;;;;;;5014220;28;20061;-66
2023/01/07 05:57:34;;;;;;;6.22;4.22;;;10.20;99.90;;;;;;5019011;28;20057;-66
2023/01/07 06:00:00;;;;;;;6.43;4.03;;;10.20;99.90;;;;;;5013683;28;20038;-67
2023/01/07 06:02:26;;;;;;;7.82;4.10;;;10.20;99.90;;;;;;5016137;28;20041;-67
2023/01/07 06:04:51;;;;;;;6.13;4.05;;;10.10;99.90;;;;;;5012695;28;20482;-66
2023/01/07 06:07:17;;;;;;;5.80;3.72;;;10.10;99.90;;;;;;5009733;28;20103;-66
2023/01/07 06:09:43;;;;;;;6.15;4.22;;;10.10;99.90;;;;;;5012508;28;20037;-67
2023/01/07 06:12:09;;;;;;;5.22;4.03;;;10.10;99.90;;;;;;5007285;28;20112;-66
2023/01/07 06:14:34;;;;;;;5.18;3.80;;;10.10;99.90;;;;;;5015247;28;20036;-66
2023/01/07 06:17:00;;;;;;;4.35;3.55;;;10.20;99.90;;;;;;5017060;28;20099;-66
2023/01/07 06:19:26;;;;;;;5.07;3.35;;;10.20;99.90;;;;;;5021799;28;20036;-66
2023/01/07 06:21:52;;;;;;;3.78;3.13;;;10.20;99.90;;;;;;5014535;28;20029;-66
2023/01/07 06:24:17;;;;;;;5.55;3.65;;;10.30;99.90;;;;;;5020051;28;20045;-66
2023/01/07 06:26:43;;;;;;;4.10;3.15;;;10.30;99.90;;;;;;5011319;28;20048;-67
2023/01/07 06:29:10;;;;;;;4.65;3.25;;;10.30;99.90;;;;;;5017346;28;20033;-67
2023/01/07 06:31:35;;;;;;;4.95;3.70;;;10.30;99.90;;;;;;5006320;28;20536;-66
2023/01/07 06:34:01;;;;;;;5.38;3.65;;;10.30;99.90;;;;;;5013487;28;20037;-66
2023/01/07 06:36:27;;;;;;;3.67;2.97;;;10.30;99.90;;;;;;5009252;28;21191;-66
2023/01/07 06:38:53;;;;;;;3.65;3.00;;;10.30;99.90;;;;;;5019806;28;20534;-66
2023/01/07 06:41:19;;;;;;;4.10;2.97;;;10.30;99.90;;;;;;5015392;28;20145;-66
2023/01/07 06:43:44;;;;;;;3.65;3.00;;;10.30;99.90;;;;;;5009161;28;20109;-66
2023/01/07 06:46:11;;;;;;;3.72;3.05;;;10.30;99.90;;;;;;5017286;28;20041;-66
2023/01/07 06:48:36;;;;;;;3.60;3.03;;;10.30;99.90;;;;;;5014165;28;20029;-67
2023/01/07 06:51:02;;;;;;;4.50;3.45;;;10.30;99.90;;;;;;5015221;28;20038;-67
2023/01/07 06:53:29;;;;;;;3.88;3.30;;;10.30;99.90;;;;;;5009229;28;20030;-66
2023/01/07 06:55:55;;;;;;;3.58;3.13;;;10.30;99.90;;;;;;5014121;28;20036;-66
2023/01/07 06:58:21;;;;;;;3.40;2.85;;;10.30;99.90;;;;;;5018199;28;20030;-67
2023/01/07 07:00:47;;;;;;;4.35;3.22;;;10.20;99.90;;;;;;5017647;28;20056;-66
2023/01/07 07:03:13;;;;;;;5.53;3.40;;;10.20;99.90;;;;;;5018382;28;20824;-67
2023/01/07 07:05:39;;;;;;;3.55;2.80;;;10.10;99.90;;;;;;5015511;28;20839;-66
2023/01/07 07:08:05;;;;;;;6.38;3.10;;;10.10;99.90;;;;;;5012911;28;20449;-66
2023/01/07 07:10:31;;;;;;;3.75;3.20;;;10.00;99.90;;;;;;5016750;28;20096;-66
2023/01/07 07:12:56;;;;;;;3.97;3.20;;;9.90;99.90;;;;;;5006800;28;20029;-66
2023/01/07 07:15:22;;;;;;;4.72;3.90;;;9.80;99.90;;;;;;5008727;28;20036;-67
2023/01/07 07:17:51;;;;;;;4.18;3.28;;;9.80;99.90;;;;;;5020290;28;20106;-66
2023/01/07 07:20:17;;;;;;;5.03;3.30;;;9.80;99.90;;;;;;5020631;28;20120;-66
2023/01/07 07:22:47;;;;;;;5.60;3.63;;;9.90;99.90;;;;;;5023620;28;20103;-66
2023/01/07 07:25:14;;;;;;;4.53;3.13;;;9.90;99.90;;;;;;5017735;28;20115;-66
2023/01/07 07:27:42;;;;;;;3.10;2.80;;;9.90;99.90;;;;;;5024384;28;20033;-66
2023/01/07 07:30:08;;;;;;;4.25;3.35;;;9.90;99.90;;;;;;5008547;28;20030;-66
2023/01/07 07:32:34;;;;;;;5.90;3.28;;;10.00;99.90;;;;;;5011694;28;20130;-66
2023/01/07 07:35:00;;;;;;;5.57;3.00;;;10.00;99.90;;;;;;5009265;28;20490;-65
2023/01/07 07:37:26;;;;;;;4.25;3.03;;;10.00;99.90;;;;;;5014078;28;20144;-65
2023/01/07 07:39:52;;;;;;;4.18;3.20;;;10.00;99.90;;;;;;5014019;28;20113;-66
2023/01/07 07:42:17;;;;;;;3.40;2.92;;;10.00;99.90;;;;;;5019926;28;20056;-66
2023/01/07 07:44:43;;;;;;;4.00;2.78;;;10.00;99.90;;;;;;5020895;28;20040;-65
2023/01/07 07:47:09;;;;;;;3.20;2.47;;;10.00;99.90;;;;;;5017354;28;20046;-66
2023/01/07 07:49:35;;;;;;;4.20;2.80;;;10.00;99.90;;;;;;5013949;28;20029;-65
2023/01/07 07:52:01;;;;;;;3.83;2.80;;;10.20;99.90;;;;;;5016630;28;20084;-65
2023/01/07 07:54:27;;;;;;;3.53;3.03;;;10.10;99.90;;;;;;5009303;28;20115;-65
2023/01/07 07:56:53;;;;;;;3.92;2.78;;;10.10;99.90;;;;;;5016179;28;20041;-65
2023/01/07 07:59:19;;;;;;;4.60;2.80;;;10.10;99.90;;;;;;5016863;28;20040;-65
2023/01/07 08:01:45;;;;;;;3.10;2.67;;;10.10;99.90;;;;;;5013730;28;20032;-66
2023/01/07 08:04:10;;;;;;;5.95;2.80;;;10.10;99.90;;;;;;5016353;28;20033;-66
2023/01/07 08:06:36;;;;;;;2.95;2.40;;;10.10;99.90;;;;;;5022844;28;20033;-66
2023/01/07 08:09:02;;;;;;;6.00;2.95;;;10.20;99.90;;;;;;5019731;28;20034;-66
2023/01/07 08:11:28;;;;;;;5.13;2.92;;;10.10;99.90;;;;;;5012876;28;20044;-66
2023/01/07 08:13:54;;;;;;;4.63;2.80;;;10.20;99.90;;;;;;5007364;28;20038;-66
2023/01/07 08:16:19;;;;;;;3.80;2.60;;;10.20;99.90;;;;;;5016001;28;20107;-66
2023/01/07 08:18:45;;;;;;;3.65;2.90;;;10.20;99.90;;;;;;5005122;28;20121;-66
2023/01/07 08:21:11;;;;;;;3.47;2.72;;;10.20;99.90;;;;;;5014365;28;20047;-66
2023/01/07 08:23:37;;;;;;;3.35;3.00;;;10.20;99.90;;;;;;5011916;28;20148;-66
2023/01/07 08:26:03;;;;;;;4.60;2.95;;;10.10;99.90;;;;;;5017039;28;20057;-66
2023/01/07 08:28:30;;;;;;;4.80;3.08;;;10.10;99.90;;;;;;5018480;28;20441;-67
2023/01/07 08:30:59;;;;;;;4.07;3.35;;;10.10;99.90;;;;;;5010985;28;20141;-66
2023/01/07 08:33:25;;;;;;;5.75;2.67;;;10.10;99.90;;;;;;5014530;28;20037;-66
2023/01/07 08:35:51;;;;;;;3.08;2.63;;;10.10;99.90;;;;;;5009264;28;20080;-66
2023/01/07 08:38:16;;;;;;;4.10;3.22;;;10.10;99.90;;;;;;5015557;28;20041;-66
2023/01/07 08:40:43;;;;;;;3.80;3.00;;;10.10;99.90;;;;;;5012655;28;20033;-66
2023/01/07 08:43:09;;;;;;;3.85;2.72;;;10.00;99.90;;;;;;5019520;28;20037;-66
2023/01/07 08:45:35;;;;;;;3.85;2.85;;;10.10;99.90;;;;;;5023843;28;20032;-67
2023/01/07 08:48:01;;;;;;;3.08;2.45;;;10.10;99.90;;;;;;5022558;28;20087;-66
2023/01/07 08:50:28;;;;;;;4.07;2.92;;;10.20;99.90;;;;;;5016452;28;20473;-67
2023/01/07 08:52:55;;;;;;;3.55;2.70;;;10.20;99.90;;;;;;5025179;28;20469;-66
2023/01/07 08:55:21;;;;;;;3.40;2.13;;;10.30;99.80;;;;;;5015840;28;20715;-67
2023/01/07 08:57:47;;;;;;;3.25;2.60;;;10.20;99.70;;;;;;5022765;28;20099;-66
2023/01/07 09:00:15;;;;;;;4.32;2.47;;;10.20;99.70;;;;;;5017023;28;20037;-67
2023/01/07 09:02:41;;;;;;;4.53;2.55;;;10.20;99.80;;;;;;5019619;28;20033;-66
2023/01/07 09:05:08;;;;;;;3.40;2.65;;;10.20;99.60;;;;;;5013300;28;20495;-65
2023/01/07 09:07:34;;;;;;;3.42;2.60;;;10.30;99.70;;;;;;5024726;28;20379;-66
2023/01/07 09:09:59;;;;;;;3.65;2.65;;;10.30;99.70;;;;;;5015650;28;20030;-66
2023/01/07 09:12:25;;;;;;;3.80;2.67;;;10.40;99.60;;;;;;5024013;28;20850;-67
2023/01/07 09:14:52;;;;;;;3.50;2.80;;;10.50;99.60;;;;;;5012129;28;20076;-66
2023/01/07 09:17:18;;;;;;;3.65;2.75;;;10.50;99.30;;;;;;5018759;28;20147;-66
2023/01/07 09:19:44;;;;;;;2.92;2.30;;;10.60;99.30;;;;;;5009090;28;20502;-67
2023/01/07 09:22:10;;;;;;;2.78;2.30;;;10.60;99.20;;;;;;5015972;28;20043;-67
2023/01/07 09:24:35;;;;;;;3.47;2.67;;;10.70;99.10;;;;;;5013855;28;20087;-71
2023/01/07 09:27:01;;;;;;;4.95;2.78;;;10.70;99.00;;;;;;5011564;28;20041;-67
2023/01/07 09:29:27;;;;;;;2.50;2.30;;;10.70;98.80;;;;;;5017405;28;20059;-67
2023/01/07 09:31:53;;;;;;;4.25;2.70;;;10.70;98.80;;;;;;5018715;28;20787;-67
2023/01/07 09:34:19;;;;;;;3.58;2.58;;;10.80;98.70;;;;;;5005863;28;20587;-66
2023/01/07 09:36:45;;;;;;;2.92;2.50;;;10.90;98.70;;;;;;5003004;28;20029;-67
2023/01/07 09:39:11;;;;;;;2.75;2.42;;;10.90;98.60;;;;;;5024094;28;20037;-66
2023/01/07 09:41:46;;;;;;;2.90;2.35;;;10.90;98.50;;;;;;5015939;28;20897;-67
2023/01/07 09:44:43;;;;;;;2.65;2.17;;;11.00;98.40;;;;;;5019560;28;20048;-67
2023/01/07 09:47:12;;;;;;;3.20;2.00;;;10.90;98.30;;;;;;5012120;28;20132;-67
2023/01/07 09:49:40;;;;;;;2.80;2.45;;;10.90;98.50;;;;;;5014332;28;20032;-67
2023/01/07 09:52:18;;;;;;;4.28;2.30;;;11.00;98.40;;;;;;5017106;28;20049;-67
2023/01/07 09:54:48;;;;;;;3.00;2.28;;;11.00;98.30;;;;;;5018085;28;20034;-67
2023/01/07 09:57:16;;;;;;;2.60;2.17;;;11.00;98.20;;;;;;5019457;28;20041;-67
2023/01/07 09:59:43;;;;;;;2.47;2.13;;;11.00;98.20;;;;;;5016834;28;20698;-67
2023/01/07 10:02:21;;;;;;;3.45;2.25;;;11.00;98.20;;;;;;5009636;28;20796;-68
2023/01/07 10:05:11;;;;;;;3.45;2.58;;;11.00;98.20;;;;;;5013914;28;20029;-66
2023/01/07 10:07:42;;;;;;;4.30;2.67;;;11.10;98.30;;;;;;5013287;28;20641;-68
2023/01/07 10:10:14;;;;;;;3.92;2.33;;;11.20;98.10;;;;;;5017290;28;20418;-67
2023/01/07 10:12:43;;;;;;;2.58;2.30;;;11.20;97.80;;;;;;5012126;28;20133;-67
2023/01/07 10:15:20;;;;;;;2.78;2.30;;;11.20;97.80;;;;;;5015994;28;20030;-67
2023/01/07 10:17:57;;;;;;;4.13;2.33;;;11.30;97.90;;;;;;5013568;28;20112;-67
2023/01/07 10:20:33;;;;;;;3.15;2.35;;;11.30;97.80;;;;;;5015270;28;20030;-67
2023/01/07 10:23:08;;;;;;;2.50;2.30;;;11.30;97.80;;;;;;5019619;28;20568;-66
2023/01/07 10:25:41;;;;;;;3.10;2.08;;;11.30;98.00;;;;;;5017859;28;20037;-67
2023/01/07 10:28:18;;;;;;;2.78;2.13;;;11.40;97.80;;;;;;5012950;28;20057;-67
2023/01/07 10:30:46;;;;;;;3.88;2.20;;;11.40;97.30;;;;;;5017185;28;20033;-66
2023/01/07 10:33:19;;;;;;;2.42;1.88;;;11.40;97.50;;;;;;5016759;28;20095;-66
2023/01/07 10:35:51;;;;;;;4.03;2.28;;;11.40;97.80;;;;;;5017430;28;20036;-66
2023/01/07 10:38:19;;;;;;;3.42;2.30;;;11.40;97.30;;;;;;5016484;28;20034;-66
2023/01/07 10:40:58;;;;;;;2.63;2.10;;;11.40;97.50;;;;;;5013210;28;20029;-66
2023/01/07 10:43:48;;;;;;;2.67;1.83;;;11.50;97.50;;;;;;5016892;28;20042;-66
2023/01/07 10:46:57;;;;;;;2.67;2.05;;;11.50;97.40;;;;;;5015434;28;20041;-67
2023/01/07 10:49:48;;;;;;;2.08;1.88;;;11.50;97.20;;;;;;5010489;28;20042;-66
2023/01/07 10:52:25;;;;;;;3.90;1.90;;;11.40;97.60;;;;;;5016724;28;20037;-67
2023/01/07 10:54:57;;;;;;;2.92;1.95;;;11.40;97.90;;;;;;5022930;28;20251;-67
2023/01/07 10:57:26;;;;;;;2.10;1.80;;;11.40;97.80;;;;;;5017517;28;20025;-66
2023/01/07 11:00:04;;;;;;;1.92;1.50;;;11.50;97.50;;;;;;5019678;28;20026;-66
2023/01/07 11:02:30;;;;;;;2.50;1.70;;;11.60;97.50;;;;;;5015500;28;20473;-66
2023/01/07 11:04:57;;;;;;;2.50;1.60;;;11.60;97.60;;;;;;5009055;28;20033;-67
2023/01/07 11:07:32;;;;;;;4.18;2.20;;;11.50;97.50;;;;;;5018684;28;20029;-67
2023/01/07 11:10:03;;;;;;;5.25;1.80;;;11.50;97.90;;;;;;5009656;28;20037;-67
2023/01/07 11:12:42;;;;;;;1.83;1.40;;;11.50;97.60;;;;;;5011271;28;20034;-67
2023/01/07 11:15:22;;;;;;;3.60;1.70;;;11.50;97.80;;;;;;5010558;28;20094;-67
2023/01/07 11:17:55;;;;;;;2.67;1.67;;;11.50;97.90;;;;;;5020028;28;20036;-66
2023/01/07 11:20:52;;;;;;;2.05;1.20;;;11.50;98.00;;;;;;5016573;28;20133;-67
2023/01/07 11:23:26;;;;;;;;;;;11.60;97.70;;;;;;5015791;28;20060;-67
2023/01/07 11:25:53;;;;;;;1.25;1.13;;;11.60;97.50;;;;;;5019030;28;19995;-67
2023/01/07 11:28:24;;;;;;;1.60;1.50;;;11.60;97.40;;;;;;5008966;28;20148;-66
2023/01/07 11:31:00;;;;;;;1.60;1.35;;;11.60;97.50;;;;;;5017072;28;20059;-67
2023/01/07 11:33:40;;;;;;;2.28;1.58;;;11.60;97.30;;;;;;5013762;28;20036;-67
2023/01/07 11:36:06;;;;;;;2.40;1.30;;;11.60;97.50;;;;;;5016336;28;20569;-66
2023/01/07 11:38:35;;;;;;;1.60;1.42;;;11.60;97.20;;;;;;5022939;28;20208;-68
2023/01/07 11:41:04;;;;;;;1.83;1.30;;;11.60;97.50;;;;;;5012776;28;20034;-66
2023/01/07 11:43:37;;;;;;;2.38;1.13;;;11.60;97.40;;;;;;5020140;28;20068;-67
2023/01/07 11:46:11;;;;;;;1.25;1.15;;;11.60;97.40;;;;;;5010823;28;20034;-67
2023/01/07 11:48:41;;;;;;;2.30;1.30;;;11.60;97.40;;;;;;5016148;28;20076;-67
2023/01/07 11:51:09;;;;;;;1.23;1.10;;;11.50;97.60;;;;;;5014211;28;20056;-66
2023/01/07 11:53:57;;;;;;;1.20;1.10;;;11.50;97.70;;;;;;5012061;28;20830;-66
2023/01/07 11:56:34;;;;;;;1.40;1.30;;;11.70;97.40;;;;;;5018709;28;20029;-68
2023/01/07 11:59:13;;;;;;;1.77;1.15;;;11.70;97.40;;;;;;5024777;28;20467;-67
2023/01/07 12:01:44;;;;;;;1.63;1.30;;;11.80;97.30;;;;;;5015002;28;20026;-67
2023/01/07 12:04:13;;;;;;;1.67;1.45;;;11.80;97.00;;;;;;5016951;28;20029;-67
2023/01/07 12:06:43;;;;;;;1.65;1.30;;;11.90;96.70;;;;;;5015649;28;20040;-68
2023/01/07 12:09:35;;;;;;;1.27;1.05;;;11.90;96.70;;;;;;5015412;28;20034;-68
2023/01/07 12:12:33;;;;;;;1.17;1.08;;;11.90;96.50;;;;;;5014590;28;20524;-67
2023/01/07 12:15:05;;;;;;;1.08;1.00;;;11.80;96.70;;;;;;5014704;28;20038;-68
2023/01/07 12:17:34;;;;;;;1.15;1.05;;;11.70;96.60;;;;;;5017195;28;20025;-68
2023/01/07 12:20:23;;;;;;;1.42;1.20;;;11.70;97.20;;;;;;5007484;28;20557;-68
2023/01/07 12:23:28;;;;;;;1.13;1.02;;;11.80;97.10;;;;;;5013010;28;20088;-68
2023/01/07 12:26:00;;;;;;;1.27;0.90;;;11.90;96.40;;;;;;5019086;28;20068;-67
2023/01/07 12:28:59;;;;;;;1.33;0.98;;;12.00;96.50;;;;;;5011740;28;20030;-68
2023/01/07 12:32:17;;;;;;;1.75;1.23;;;11.90;96.50;;;;;;5018205;28;20049;-68
2023/01/07 12:34:59;;;;;;;1.02;0.90;;;11.90;96.60;;;;;;5016933;28;20112;-67
2023/01/07 12:37:35;;;;;;;1.02;0.80;;;12.10;96.00;;;;;;5017073;28;20536;-67
2023/01/07 12:40:31;;;;;;;2.22;1.10;;;12.10;96.00;;;;;;5006822;28;20111;-67
2023/01/07 12:43:29;;;;;;;2.60;0.90;;;12.10;95.90;;;;;;5017558;28;20052;-67
2023/01/07 12:45:58;;;;;;;0.90;0.80;;;12.00;95.80;;;;;;5014719;28;20109;-68
2023/01/07 12:48:34;;;;;;;0.93;0.90;;;12.00;96.00;;;;;;5012852;28;20030;-69
2023/01/07 12:51:09;;;;;;;0.70;0.70;;;12.00;95.70;;;;;;5014479;28;20061;-67
2023/01/07 12:53:45;;;;;;;0.95;0.85;;;12.00;95.70;;;;;;5014064;28;20037;-68
2023/01/07 12:56:22;;;;;;;0.75;0.60;;;12.10;95.90;;;;;;5010549;28;20057;-69
2023/01/07 12:58:58;;;;;;;5.72;1.13;;;12.10;95.60;;;;;;5008223;28;20040;-69
2023/01/07 13:01:27;;;;;;;;;;;12.00;95.30;;;;;;5016942;28;20029;-72
2023/01/07 13:04:54;;;;;;;0.70;0.70;;;11.90;95.60;;;;;;5014131;28;19923;-68
2023/01/07 13:07:29;;;;;;;1.20;1.00;;;12.00;95.40;;;;;;5008880;28;20049;-69
2023/01/07 13:10:04;;;;;;;1.00;0.80;;;11.90;95.80;;;;;;5018006;28;20033;-69
2023/01/07 13:12:42;;;;;;;1.92;0.98;;;11.90;95.80;;;;;;5013758;28;20889;-69